Time;durP1;ratioP1;P1;durP2;ratioP2;P2;SDS_P1;SDS_P2;PMS_P1;PMS_P2;Temp;Humidity;BMP_temperature;BMP_pressure;BME280_temperature;BME280_humidity;BME280_pressure;Samples;Min_cycle;Max_cycle;Signal;HPM_P1;HPM_P2
2022/06/23 00:00:07;;;;;;;1.93;1.30;;;11.80;99.90;;;;;;4983398;28;20018;-64
2022/06/23 00:02:38;;;;;;;2.30;1.35;;;12.00;99.90;;;;;;4979354;28;20110;-67
2022/06/23 00:05:14;;;;;;;2.22;1.70;;;12.20;99.90;;;;;;4975734;28;20022;-64
2022/06/23 00:07:46;;;;;;;3.08;1.80;;;12.40;99.90;;;;;;4974774;28;20065;-64
2022/06/23 00:10:24;;;;;;;2.22;1.45;;;12.60;99.90;;;;;;4984908;28;20018;-66
2022/06/23 00:12:53;;;;;;;4.25;2.25;;;12.70;99.90;;;;;;4988113;28;20536;-63
2022/06/23 00:15:37;;;;;;;3.85;1.50;;;12.90;99.90;;;;;;4987149;28;20018;-63
2022/06/23 00:18:13;;;;;;;4.13;1.83;;;13.00;99.90;;;;;;4974374;28;20507;-65
2022/06/23 00:20:40;;;;;;;2.75;1.83;;;13.20;99.90;;;;;;4973574;28;20113;-66
2022/06/23 00:23:22;;;;;;;3.05;1.75;;;13.40;99.90;;;;;;4980100;28;20455;-63
2022/06/23 00:25:49;;;;;;;2.90;1.92;;;13.50;99.90;;;;;;4974902;28;20097;-64
2022/06/23 00:28:25;;;;;;;3.20;2.20;;;13.70;99.90;;;;;;4974425;28;20445;-66
2022/06/23 00:31:01;;;;;;;3.78;2.10;;;13.90;99.90;;;;;;4981471;28;20046;-64
2022/06/23 00:33:38;;;;;;;4.47;2.80;;;14.20;99.90;;;;;;4981273;28;20037;-65
2022/06/23 00:36:41;;;;;;;3.03;2.10;;;14.30;99.90;;;;;;4980475;28;20041;-66
2022/06/23 00:39:27;;;;;;;4.15;1.98;;;14.50;99.90;;;;;;4909676;29;20044;-65
2022/06/23 00:41:54;;;;;;;3.08;2.35;;;14.70;99.90;;;;;;4909906;29;20032;-66
2022/06/23 00:44:45;;;;;;;3.00;1.80;;;14.70;99.90;;;;;;4910174;29;20812;-64
2022/06/23 00:47:21;;;;;;;1.95;1.30;;;14.80;99.90;;;;;;4906660;29;20035;-65
2022/06/23 00:50:02;;;;;;;2.70;1.77;;;14.90;99.90;;;;;;4910299;29;20398;-64
2022/06/23 00:53:09;;;;;;;4.30;1.80;;;15.00;99.90;;;;;;4909241;29;20043;-66
2022/06/23 00:55:36;;;;;;;3.15;2.30;;;15.20;99.90;;;;;;4909163;29;20036;-67
2022/06/23 00:58:18;;;;;;;2.85;1.40;;;15.40;99.90;;;;;;4908478;29;20393;-66
2022/06/23 01:00:50;;;;;;;2.10;1.30;;;15.60;99.90;;;;;;4911213;29;20028;-65
2022/06/23 01:03:19;;;;;;;1.77;1.02;;;15.70;99.90;;;;;;4909457;29;20123;-65
2022/06/23 01:06:18;;;;;;;2.78;1.13;;;15.90;99.90;;;;;;4910397;29;20055;-64
2022/06/23 01:08:56;;;;;;;4.15;3.75;;;16.00;99.90;;;;;;4909088;29;20524;-66
2022/06/23 01:11:39;;;;;;;2.80;2.00;;;16.20;99.90;;;;;;4908712;29;20039;-66
2022/06/23 01:14:17;;;;;;;4.35;2.97;;;16.40;99.90;;;;;;4909816;29;20035;-65
2022/06/23 01:16:55;;;;;;;2.92;1.52;;;16.50;99.90;;;;;;4974777;28;20741;-64
2022/06/23 01:19:40;;;;;;;3.13;1.20;;;16.70;99.90;;;;;;4971652;28;20026;-66
2022/06/23 01:22:22;;;;;;;2.53;1.08;;;16.80;99.90;;;;;;4977021;28;20495;-64
2022/06/23 01:24:58;;;;;;;1.90;1.40;;;16.80;99.90;;;;;;4985179;28;20023;-66
2022/06/23 01:27:37;;;;;;;2.70;1.10;;;17.00;99.90;;;;;;4982332;28;20054;-65
2022/06/23 01:30:10;;;;;;;3.67;0.95;;;17.20;99.90;;;;;;4972204;28;20050;-64
2022/06/23 01:33:00;;;;;;;5.18;1.63;;;17.30;99.90;;;;;;4978930;28;20395;-63
2022/06/23 01:35:46;;;;;;;1.45;0.88;;;17.50;99.70;;;;;;4981901;28;20022;-66
2022/06/23 01:38:46;;;;;;;2.08;0.90;;;17.60;99.60;;;;;;4973421;28;20067;-64
2022/06/23 01:41:31;;;;;;;0.68;0.65;;;17.60;99.10;;;;;;4891422;29;20127;-63
2022/06/23 01:44:20;;;;;;;1.77;0.75;;;17.50;98.90;;;;;;4896362;29;20031;-63
2022/06/23 01:46:52;;;;;;;2.50;1.15;;;17.60;98.00;;;;;;4857467;29;20049;-62
2022/06/23 01:49:27;;;;;;;1.92;0.88;;;17.50;98.50;;;;;;4853063;29;20226;-66
2022/06/23 01:52:11;;;;;;;2.47;1.85;;;17.70;98.30;;;;;;4859076;29;20094;-67
2022/06/23 01:54:40;;;;;;;1.85;1.30;;;17.90;98.50;;;;;;4858458;29;20033;-63
2022/06/23 01:57:07;;;;;;;2.08;0.70;;;18.20;97.40;;;;;;4839544;29;20209;-62
2022/06/23 01:59:34;;;;;;;2.10;1.23;;;18.20;97.70;;;;;;4846836;29;20549;-62
2022/06/23 02:02:26;;;;;;;1.88;0.90;;;18.30;97.40;;;;;;4854051;29;20539;-64
2022/06/23 02:04:56;;;;;;;1.35;0.60;;;18.40;96.50;;;;;;4856277;29;20069;-63
2022/06/23 02:07:31;;;;;;;1.30;0.73;;;18.50;96.50;;;;;;4855755;29;20121;-66
2022/06/23 02:10:23;;;;;;;0.75;0.68;;;18.50;96.80;;;;;;4853735;29;20431;-64
2022/06/23 02:13:08;;;;;;;4.10;0.90;;;18.50;96.00;;;;;;4849072;29;20496;-64
2022/06/23 02:15:48;;;;;;;1.02;0.90;;;18.60;96.60;;;;;;4857352;29;20084;-65
2022/06/23 02:18:35;;;;;;;1.00;0.82;;;18.70;96.50;;;;;;4905925;29;20511;-65
2022/06/23 02:21:28;;;;;;;3.50;0.75;;;18.80;96.40;;;;;;4929216;29;20034;-61
2022/06/23 02:24:33;;;;;;;1.70;0.98;;;18.60;95.60;;;;;;4948914;28;20066;-64
2022/06/23 02:27:38;;;;;;;6.18;1.20;;;18.60;96.50;;;;;;4976512;28;20066;-65
2022/06/23 02:30:20;;;;;;;1.70;0.70;;;18.80;96.80;;;;;;4974330;28;20115;-64
2022/06/23 02:32:47;;;;;;;2.88;0.95;;;18.90;95.30;;;;;;4978678;28;20022;-63
2022/06/23 02:35:32;;;;;;;2.50;0.88;;;19.00;95.60;;;;;;4973749;28;20022;-63
2022/06/23 02:38:45;;;;;;;3.50;1.17;;;19.20;95.80;;;;;;4973997;28;20122;-63
2022/06/23 02:41:48;;;;;;;2.55;1.27;;;19.30;95.70;;;;;;4975003;28;20035;-63
2022/06/23 02:44:24;;;;;;;2.13;1.20;;;19.30;95.00;;;;;;4909895;29;20040;-64
2022/06/23 02:46:56;;;;;;;1.85;0.65;;;19.30;95.30;;;;;;4909781;29;20042;-63
2022/06/23 02:49:50;;;;;;;2.05;1.00;;;19.10;94.80;;;;;;4909531;29;20468;-64
2022/06/23 02:52:26;;;;;;;0.85;0.80;;;19.10;95.10;;;;;;4904604;29;20175;-65
2022/06/23 02:54:59;;;;;;;2.53;0.85;;;19.20;95.70;;;;;;4909256;29;20441;-63
2022/06/23 02:57:47;;;;;;;1.65;1.08;;;19.30;95.30;;;;;;4909088;29;20052;-65
2022/06/23 03:00:42;;;;;;;4.30;1.10;;;19.20;95.30;;;;;;4908811;29;20032;-62
2022/06/23 03:03:23;;;;;;;2.55;1.00;;;19.10;95.10;;;;;;4903347;29;20040;-65
2022/06/23 03:05:52;;;;;;;2.25;1.00;;;19.00;95.30;;;;;;4909969;29;20168;-64
2022/06/23 03:08:31;;;;;;;5.15;0.90;;;19.10;95.50;;;;;;4908832;29;20074;-66
2022/06/23 03:11:09;;;;;;;3.75;0.68;;;19.30;95.30;;;;;;4909907;29;20047;-63
2022/06/23 03:13:58;;;;;;;3.70;0.60;;;19.50;95.20;;;;;;4908695;29;20500;-62
2022/06/23 03:16:36;;;;;;;2.15;0.60;;;19.60;94.30;;;;;;4909388;29;20039;-62
2022/06/23 03:19:14;;;;;;;3.55;0.70;;;19.40;94.50;;;;;;4910720;29;20036;-62
2022/06/23 03:21:45;;;;;;;6.50;0.80;;;19.50;94.60;;;;;;4969224;28;20046;-64
2022/06/23 03:24:30;;;;;;;1.50;0.70;;;19.60;95.00;;;;;;4974218;28;20106;-66
2022/06/23 03:27:20;;;;;;;1.48;0.70;;;19.80;94.40;;;;;;4975391;28;20070;-64
2022/06/23 03:29:59;;;;;;;2.33;0.88;;;19.80;93.70;;;;;;4982822;28;20058;-62
2022/06/23 03:32:42;;;;;;;3.50;1.73;;;19.90;94.60;;;;;;4970066;28;20092;-65
2022/06/23 03:35:11;;;;;;;;;;;20.10;94.10;;;;;;4977683;28;20037;-63
2022/06/23 03:38:09;;;;;;;0.60;0.30;;;20.40;93.10;;;;;;4981053;28;19956;-66
2022/06/23 03:44:00;;;;;;;0.65;0.28;;;20.20;92.20;;;;;;4978058;28;20029;-68
2022/06/23 03:46:43;;;;;;;0.40;0.13;;;20.10;92.50;;;;;;4976213;28;20484;-66
2022/06/23 03:49:40;;;;;;;1.10;0.30;;;20.10;92.90;;;;;;4980147;28;20023;-63
2022/06/23 03:52:22;;;;;;;3.92;0.50;;;20.20;92.60;;;;;;4983899;28;20101;-63
2022/06/23 03:55:22;;;;;;;0.20;0.10;;;20.20;92.20;;;;;;4978907;28;20175;-66
2022/06/23 03:58:03;;;;;;;1.38;0.30;;;20.00;92.40;;;;;;4970074;28;20050;-67
2022/06/23 04:00:38;;;;;;;0.30;0.20;;;19.90;92.90;;;;;;4973379;28;20479;-63
2022/06/23 04:03:21;;;;;;;2.92;0.20;;;20.00;92.20;;;;;;4979573;28;20026;-65
2022/06/23 04:06:02;;;;;;;1.48;0.20;;;20.10;92.40;;;;;;4976653;28;20131;-66
2022/06/23 04:08:35;;;;;;;0.57;0.22;;;20.20;91.80;;;;;;4974189;28;20026;-64
2022/06/23 04:13:57;;;;;;;1.60;0.22;;;20.50;91.80;;;;;;4984122;28;20034;-67
2022/06/23 04:16:25;;;;;;;1.20;0.50;;;20.50;90.90;;;;;;4976496;28;20019;-67
2022/06/23 04:18:53;;;;;;;3.80;0.45;;;20.40;91.20;;;;;;4974624;28;20085;-63
2022/06/23 04:21:25;;;;;;;1.70;0.20;;;20.20;91.30;;;;;;4978145;28;20049;-63
2022/06/23 04:23:58;;;;;;;3.10;0.20;;;20.10;92.00;;;;;;4980642;28;20030;-66
2022/06/23 04:26:39;;;;;;;1.95;0.30;;;19.80;91.90;;;;;;4977108;28;20029;-63
2022/06/23 04:29:21;;;;;;;2.30;0.30;;;19.60;91.70;;;;;;4972495;28;20519;-63
2022/06/23 04:32:04;;;;;;;0.73;0.20;;;19.60;92.10;;;;;;4975714;28;20034;-67
2022/06/23 04:34:35;;;;;;;0.77;0.28;;;19.60;92.00;;;;;;4980488;28;20359;-62
2022/06/23 04:37:03;;;;;;;1.55;0.30;;;19.70;91.70;;;;;;4977776;28;20084;-62
2022/06/23 04:39:43;;;;;;;0.40;0.30;;;19.60;91.40;;;;;;4972596;28;20163;-63
2022/06/23 04:42:29;;;;;;;2.38;0.30;;;19.40;91.50;;;;;;4987599;28;20023;-64
2022/06/23 04:45:41;;;;;;;1.80;0.40;;;19.30;91.90;;;;;;4979090;28;20085;-63
2022/06/23 04:48:17;;;;;;;0.68;0.20;;;19.40;91.80;;;;;;4909935;29;20052;-62
2022/06/23 04:51:23;;;;;;;2.42;0.32;;;19.50;91.60;;;;;;4910858;29;20048;-61
2022/06/23 04:53:57;;;;;;;1.75;0.30;;;19.30;91.90;;;;;;4821266;29;20034;-63
2022/06/23 04:56:36;;;;;;;2.35;0.43;;;19.30;91.70;;;;;;4837183;29;20121;-61
2022/06/23 04:59:28;;;;;;;0.30;0.20;;;19.20;91.70;;;;;;4836878;29;20089;-63
2022/06/23 05:01:59;;;;;;;1.35;0.50;;;19.00;92.10;;;;;;4837579;29;20046;-63
2022/06/23 05:04:46;;;;;;;0.52;0.30;;;18.90;92.40;;;;;;4836986;29;20117;-62
2022/06/23 05:07:34;;;;;;;3.40;0.80;;;18.90;92.60;;;;;;4839568;29;20094;-62
2022/06/23 05:10:07;;;;;;;2.42;0.38;;;18.80;92.30;;;;;;4845317;29;20029;-63
2022/06/23 05:12:48;;;;;;;2.58;0.25;;;18.80;92.70;;;;;;4836705;29;20044;-62
2022/06/23 05:15:27;;;;;;;0.35;0.30;;;18.70;92.10;;;;;;4835275;29;20102;-64
2022/06/23 05:18:20;;;;;;;2.22;0.30;;;18.60;92.20;;;;;;4834370;29;20420;-64
2022/06/23 05:20:53;;;;;;;2.78;0.40;;;18.30;92.20;;;;;;4842088;29;20522;-64
2022/06/23 05:23:26;;;;;;;1.83;0.40;;;18.30;92.40;;;;;;4835664;29;20037;-65
2022/06/23 05:26:02;;;;;;;0.25;0.20;;;18.20;92.50;;;;;;4882387;29;20036;-61
2022/06/23 05:28:36;;;;;;;2.25;0.63;;;18.30;92.70;;;;;;4959183;28;20045;-65
2022/06/23 05:31:13;;;;;;;0.85;0.30;;;18.50;92.00;;;;;;4973002;23;20173;-62
2022/06/23 05:33:51;;;;;;;1.60;0.40;;;18.30;92.30;;;;;;4958694;28;20055;-62
2022/06/23 05:36:24;;;;;;;4.18;0.45;;;18.20;92.30;;;;;;4954973;28;20387;-61
2022/06/23 05:39:13;;;;;;;1.98;0.80;;;18.00;92.70;;;;;;4961161;28;20018;-61
2022/06/23 05:41:52;;;;;;;1.70;0.30;;;17.70;93.00;;;;;;4957288;28;20038;-62
2022/06/23 05:44:32;;;;;;;0.20;0.20;;;17.30;93.40;;;;;;4961151;28;20038;-64
2022/06/23 05:47:01;;;;;;;1.95;0.43;;;17.20;93.80;;;;;;4965491;28;20579;-61
2022/06/23 05:49:36;;;;;;;1.35;0.30;;;17.00;94.00;;;;;;4959207;28;20030;-61
2022/06/23 05:52:12;;;;;;;3.53;0.52;;;17.00;94.00;;;;;;4957656;28;20022;-64
2022/06/23 05:55:06;;;;;;;3.45;0.50;;;16.80;94.60;;;;;;4956021;28;20023;-60
2022/06/23 05:58:11;;;;;;;3.33;0.43;;;16.70;94.40;;;;;;4960285;28;20019;-63
2022/06/23 06:01:04;;;;;;;2.20;0.20;;;16.50;94.20;;;;;;4957315;28;20126;-61
2022/06/23 06:03:35;;;;;;;0.88;0.40;;;16.40;94.60;;;;;;4933839;28;20067;-65
2022/06/23 06:06:02;;;;;;;3.83;0.38;;;16.30;94.60;;;;;;4933926;28;20071;-63
2022/06/23 06:09:35;;;;;;;4.20;0.45;;;16.20;94.70;;;;;;4935617;28;20027;-63
2022/06/23 06:11:26;;;;;;;3.03;0.38;;;16.10;95.20;;;;;;4931939;28;20038;-64
2022/06/23 06:13:53;;;;;;;4.47;0.57;;;16.10;94.90;;;;;;4930081;28;20050;-64
2022/06/23 06:16:21;;;;;;;6.75;0.55;;;15.90;94.70;;;;;;4929274;28;20425;-64
2022/06/23 06:18:48;;;;;;;4.22;0.40;;;15.90;94.70;;;;;;4931882;28;20023;-61
2022/06/23 06:21:18;;;;;;;6.07;1.00;;;15.90;95.00;;;;;;4929663;28;20023;-61
2022/06/23 06:23:58;;;;;;;5.05;0.80;;;15.90;95.10;;;;;;4934105;28;20527;-64
2022/06/23 06:26:31;;;;;;;1.90;0.40;;;15.80;95.20;;;;;;4932574;28;20027;-62
2022/06/23 06:29:10;;;;;;;;;;;15.60;95.30;;;;;;4931840;28;20493;-66
2022/06/23 06:31:52;;;;;;;4.35;0.60;;;15.60;95.80;;;;;;4934849;28;20391;-65
2022/06/23 06:34:38;;;;;;;2.30;0.57;;;15.50;95.70;;;;;;4934296;28;20032;-62
2022/06/23 06:37:09;;;;;;;5.30;1.10;;;15.40;96.10;;;;;;4934789;28;20090;-65
2022/06/23 06:39:42;;;;;;;4.40;0.80;;;15.40;96.30;;;;;;4942897;28;20058;-65
2022/06/23 06:42:18;;;;;;;2.22;0.80;;;15.40;96.40;;;;;;4943975;28;20032;-62
2022/06/23 06:44:53;;;;;;;8.00;1.40;;;15.40;96.40;;;;;;4939551;28;20512;-61
2022/06/23 06:47:25;;;;;;;3.45;0.50;;;15.40;96.30;;;;;;4940418;28;20108;-61
2022/06/23 06:50:02;;;;;;;0.87;0.30;;;15.30;96.40;;;;;;4942401;28;20015;-61
2022/06/23 06:52:29;;;;;;;0.55;0.20;;;15.20;96.60;;;;;;4943735;28;20031;-64
2022/06/23 06:55:03;;;;;;;0.43;0.30;;;15.10;96.80;;;;;;4943768;28;20039;-63
2022/06/23 06:57:41;;;;;;;0.65;0.30;;;15.10;96.90;;;;;;4942312;28;20783;-62
2022/06/23 07:00:20;;;;;;;0.35;0.35;;;15.10;97.00;;;;;;4940133;28;20094;-67
2022/06/23 07:03:02;;;;;;;2.47;0.50;;;15.00;97.40;;;;;;4943765;28;20122;-62
2022/06/23 07:05:39;;;;;;;0.93;0.50;;;14.90;97.70;;;;;;4941763;28;20035;-61
2022/06/23 07:08:21;;;;;;;0.82;0.50;;;14.80;97.90;;;;;;4943525;28;20079;-61
2022/06/23 07:10:57;;;;;;;1.55;0.50;;;14.70;98.10;;;;;;4944390;28;20167;-64
2022/06/23 07:13:27;;;;;;;1.25;0.52;;;14.60;98.20;;;;;;4946298;28;20027;-61
2022/06/23 07:15:59;;;;;;;0.90;0.55;;;14.60;98.50;;;;;;4948698;28;20038;-61
2022/06/23 07:18:38;;;;;;;1.48;0.70;;;14.60;98.70;;;;;;4943022;28;20040;-61
2022/06/23 07:21:24;;;;;;;1.02;0.50;;;14.40;98.80;;;;;;4944870;28;20016;-61
2022/06/23 07:24:17;;;;;;;0.63;0.40;;;14.20;99.30;;;;;;4944307;28;20114;-63
2022/06/23 07:27:03;;;;;;;0.90;0.60;;;14.00;99.90;;;;;;4944114;28;20078;-63
2022/06/23 07:29:39;;;;;;;1.88;0.60;;;13.70;99.90;;;;;;4943512;28;20047;-65
2022/06/23 07:32:29;;;;;;;2.83;0.88;;;13.40;99.90;;;;;;4948221;28;20081;-65
2022/06/23 07:35:06;;;;;;;2.45;0.60;;;13.20;99.90;;;;;;4947592;28;20569;-64
2022/06/23 07:37:43;;;;;;;1.63;0.60;;;13.00;99.90;;;;;;4943516;28;20035;-63
2022/06/23 07:40:11;;;;;;;1.33;0.93;;;12.80;99.90;;;;;;4943971;28;20056;-64
2022/06/23 07:42:48;;;;;;;3.85;1.20;;;12.60;99.90;;;;;;4945158;28;20039;-65
2022/06/23 07:45:44;;;;;;;11.35;5.93;;;12.60;99.90;;;;;;4942355;28;20262;-68
2022/06/23 07:48:11;;;;;;;6.53;4.07;;;12.80;99.90;;;;;;4941753;28;20031;-60
2022/06/23 07:50:38;;;;;;;6.45;2.83;;;12.90;99.90;;;;;;4942669;28;20226;-61
2022/06/23 07:53:10;;;;;;;8.48;2.70;;;13.00;99.90;;;;;;4942323;28;20029;-62
2022/06/23 07:55:43;;;;;;;7.55;3.55;;;13.00;99.90;;;;;;4942718;28;20464;-62
2022/06/23 07:58:14;;;;;;;6.43;2.50;;;13.00;99.90;;;;;;4941865;28;20488;-61
2022/06/23 08:00:44;;;;;;;7.07;3.58;;;12.90;99.90;;;;;;4942771;28;20031;-61
2022/06/23 08:03:45;;;;;;;5.25;3.20;;;12.80;99.90;;;;;;4943258;28;20027;-61
2022/06/23 08:06:18;;;;;;;4.85;2.60;;;12.80;99.90;;;;;;4901500;29;20043;-64
2022/06/23 08:08:45;;;;;;;;;;;12.70;99.90;;;;;;4903528;29;20207;-64
2022/06/23 08:14:11;;;;;;;4.20;2.05;;;12.60;99.90;;;;;;4900946;29;20544;-62
2022/06/23 08:16:52;;;;;;;2.88;1.80;;;12.40;99.90;;;;;;4900966;29;20048;-66
2022/06/23 08:19:34;;;;;;;5.63;3.40;;;12.40;99.90;;;;;;4902783;29;20115;-62
2022/06/23 08:22:19;;;;;;;11.15;5.30;;;12.30;99.90;;;;;;4905559;29;20042;-64
2022/06/23 08:24:50;;;;;;;6.38;3.83;;;12.20;99.90;;;;;;4900708;29;20070;-62
2022/06/23 08:27:21;;;;;;;4.55;2.10;;;12.10;99.90;;;;;;4900641;29;20119;-64
2022/06/23 08:29:50;;;;;;;3.75;2.30;;;12.20;99.90;;;;;;4900984;29;20397;-63
2022/06/23 08:32:17;;;;;;;4.38;2.70;;;12.40;99.90;;;;;;4903223;29;20103;-62
2022/06/23 08:35:06;;;;;;;5.60;2.65;;;12.40;99.90;;;;;;4899842;29;20032;-64
2022/06/23 08:37:39;;;;;;;5.95;3.28;;;12.30;99.90;;;;;;4898754;29;20027;-65
2022/06/23 08:40:34;;;;;;;6.18;3.00;;;12.10;99.90;;;;;;4902527;29;20566;-65
2022/06/23 08:43:42;;;;;;;7.90;6.22;;;12.00;99.90;;;;;;4926757;28;20035;-65
2022/06/23 08:46:37;;;;;;;8.07;4.40;;;11.80;99.90;;;;;;4937214;28;20043;-67
2022/06/23 08:49:23;;;;;;;8.15;3.20;;;11.80;99.90;;;;;;4947094;28;20030;-65
2022/06/23 08:52:17;;;;;;;5.82;3.33;;;11.60;99.90;;;;;;4943119;28;20487;-62
2022/06/23 08:55:05;;;;;;;9.50;3.80;;;11.60;99.90;;;;;;4901867;29;20047;-61
2022/06/23 08:57:38;;;;;;;6.32;3.40;;;11.60;99.90;;;;;;4903636;29;20035;-67
2022/06/23 09:00:10;;;;;;;5.53;3.80;;;11.70;99.90;;;;;;4902800;29;20162;-68
2022/06/23 09:02:47;;;;;;;5.28;3.30;;;11.50;99.90;;;;;;4901138;29;20064;-68
2022/06/23 09:05:47;;;;;;;5.38;3.53;;;11.30;99.90;;;;;;4903598;29;20111;-66
2022/06/23 09:08:23;;;;;;;6.10;3.35;;;11.20;99.90;;;;;;4843339;29;20126;-67
2022/06/23 09:11:06;;;;;;;6.53;3.90;;;11.00;99.90;;;;;;4846256;29;20156;-69
2022/06/23 09:13:55;;;;;;;5.68;3.70;;;10.90;99.90;;;;;;4844866;29;20153;-69
2022/06/23 09:17:00;;;;;;;6.70;4.20;;;10.80;99.90;;;;;;4845579;29;20526;-65
2022/06/23 09:19:45;;;;;;;7.63;4.07;;;10.70;99.90;;;;;;4843920;29;20041;-65
2022/06/23 09:22:18;;;;;;;6.43;4.20;;;10.60;99.90;;;;;;4849404;29;20329;-65
2022/06/23 09:24:59;;;;;;;5.50;3.83;;;10.60;99.90;;;;;;4847867;29;20084;-64
2022/06/23 09:28:08;;;;;;;6.00;3.78;;;10.60;99.90;;;;;;4844209;29;20561;-62
2022/06/23 09:30:51;;;;;;;5.20;4.22;;;10.50;99.90;;;;;;4820926;29;20060;-65
2022/06/23 09:33:24;;;;;;;6.70;4.18;;;10.50;99.90;;;;;;4836840;29;20349;-65
2022/06/23 09:36:17;;;;;;;10.57;6.68;;;10.40;99.90;;;;;;4838136;29;20053;-67
2022/06/23 09:39:02;;;;;;;7.57;5.10;;;10.40;99.90;;;;;;4834885;29;20037;-68
2022/06/23 09:41:56;;;;;;;8.80;4.30;;;10.40;99.90;;;;;;4840488;29;20032;-69
2022/06/23 09:44:38;;;;;;;18.92;12.05;;;10.50;99.90;;;;;;4845698;29;20047;-64
2022/06/23 09:47:42;;;;;;;27.38;17.00;;;10.40;99.90;;;;;;4883365;29;20048;-66
2022/06/23 09:50:38;;;;;;;12.10;7.55;;;10.50;99.90;;;;;;4883095;29;20099;-65
2022/06/23 09:53:07;;;;;;;9.32;6.68;;;10.50;99.90;;;;;;4828395;29;20483;-66
2022/06/23 09:55:43;;;;;;;12.43;8.68;;;10.40;99.90;;;;;;4827432;29;20078;-64
2022/06/23 09:58:18;;;;;;;8.85;6.80;;;10.30;99.90;;;;;;4822597;29;20038;-67
2022/06/23 10:00:48;;;;;;;9.30;7.13;;;10.30;99.90;;;;;;4826370;29;20140;-67
2022/06/23 10:03:21;;;;;;;10.32;7.88;;;10.30;99.90;;;;;;4823991;29;20042;-64
2022/06/23 10:06:15;;;;;;;8.63;6.13;;;10.20;99.90;;;;;;4844136;29;20574;-67
2022/06/23 10:09:15;;;;;;;7.32;4.82;;;10.30;99.90;;;;;;4878683;29;20051;-65
2022/06/23 10:11:44;;;;;;;7.40;4.22;;;10.30;99.90;;;;;;4877547;29;20203;-67
2022/06/23 10:14:39;;;;;;;8.43;3.75;;;10.20;99.90;;;;;;4873932;29;20036;-68
2022/06/23 10:17:29;;;;;;;5.82;3.65;;;10.10;99.90;;;;;;4875557;29;20076;-69
2022/06/23 10:20:40;;;;;;;4.38;3.05;;;10.10;99.90;;;;;;4875504;29;20064;-67
2022/06/23 10:23:13;;;;;;;5.90;4.10;;;10.00;99.90;;;;;;4883529;29;20398;-67
2022/06/23 10:26:01;;;;;;;5.07;3.30;;;9.90;99.90;;;;;;4877077;29;20037;-67
2022/06/23 10:28:46;;;;;;;6.60;4.28;;;9.90;99.90;;;;;;4875281;29;20626;-66
2022/06/23 10:31:31;;;;;;;3.97;3.50;;;9.80;99.90;;;;;;4937478;28;20054;-66
2022/06/23 10:34:54;;;;;;;6.20;3.80;;;9.70;99.90;;;;;;4940329;28;20531;-65
2022/06/23 10:37:36;;;;;;;8.32;4.40;;;9.70;99.90;;;;;;4879121;29;20409;-67
2022/06/23 10:40:18;;;;;;;5.28;3.60;;;9.60;99.90;;;;;;4882341;29;20185;-64
2022/06/23 10:42:59;;;;;;;5.57;3.63;;;9.60;99.90;;;;;;4881130;29;20245;-68
2022/06/23 10:45:55;;;;;;;5.40;3.33;;;9.50;99.90;;;;;;4878483;29;20052;-66
2022/06/23 10:48:31;;;;;;;5.20;3.80;;;9.50;99.90;;;;;;4877767;29;20044;-66
2022/06/23 10:51:26;;;;;;;4.63;2.97;;;9.50;99.90;;;;;;4880143;29;20040;-63
2022/06/23 10:54:08;;;;;;;7.05;4.80;;;9.50;99.90;;;;;;4879779;29;20041;-64
2022/06/23 10:57:01;;;;;;;8.82;5.50;;;9.50;99.90;;;;;;4880093;29;20037;-67
2022/06/23 10:59:46;;;;;;;6.32;4.90;;;9.50;99.90;;;;;;4880742;29;20041;-65
2022/06/23 11:02:18;;;;;;;6.47;4.95;;;9.60;99.90;;;;;;4886160;29;20033;-63
2022/06/23 11:05:03;;;;;;;6.75;4.22;;;9.40;99.90;;;;;;4886241;29;20097;-64
2022/06/23 11:07:58;;;;;;;6.50;4.05;;;9.40;99.90;;;;;;4880505;29;20036;-68
2022/06/23 11:10:49;;;;;;;6.97;4.45;;;9.40;99.90;;;;;;4887972;29;20473;-66
2022/06/23 11:13:28;;;;;;;5.32;3.60;;;9.30;99.90;;;;;;4933903;28;20028;-63
2022/06/23 11:16:10;;;;;;;6.95;3.78;;;9.30;99.90;;;;;;4935300;28;20034;-64
2022/06/23 11:18:46;;;;;;;4.55;3.58;;;9.30;99.90;;;;;;4936162;28;20024;-69
2022/06/23 11:21:32;;;;;;;6.05;3.65;;;9.10;99.90;;;;;;4939722;28;20073;-64
2022/06/23 11:24:22;;;;;;;5.80;3.72;;;8.90;99.90;;;;;;4940271;28;20032;-68
2022/06/23 11:27:29;;;;;;;5.47;3.50;;;8.80;99.90;;;;;;4934297;28;20112;-68
2022/06/23 11:30:08;;;;;;;4.53;3.13;;;8.90;99.90;;;;;;4902468;29;20087;-67
2022/06/23 11:32:44;;;;;;;5.75;4.18;;;8.90;99.90;;;;;;4895935;29;20787;-68
2022/06/23 11:35:19;;;;;;;5.85;4.40;;;8.90;99.90;;;;;;4896604;29;20047;-65
2022/06/23 11:38:23;;;;;;;6.72;4.22;;;8.80;99.90;;;;;;4897925;29;20644;-67
2022/06/23 11:40:59;;;;;;;5.00;3.95;;;8.70;99.90;;;;;;4903013;29;20043;-68
2022/06/23 11:43:41;;;;;;;6.10;3.70;;;8.70;99.90;;;;;;4903759;29;20465;-68
2022/06/23 11:46:14;;;;;;;7.68;4.55;;;8.60;99.90;;;;;;4902180;29;20237;-68
2022/06/23 11:48:41;;;;;;;;;;;8.60;99.90;;;;;;4894303;29;20615;-65
2022/06/23 11:51:18;;;;;;;6.40;4.55;;;8.50;99.90;;;;;;4896563;29;19951;-69
2022/06/23 11:54:14;;;;;;;7.28;4.57;;;8.40;99.90;;;;;;4891867;29;20139;-65
2022/06/23 11:56:47;;;;;;;6.13;4.18;;;8.30;99.90;;;;;;4896422;29;20059;-68
2022/06/23 11:59:27;;;;;;;6.43;4.80;;;8.20;99.90;;;;;;4893600;29;20088;-69
2022/06/23 12:01:56;;;;;;;8.40;5.63;;;8.10;99.90;;;;;;4897410;29;20112;-65
2022/06/23 12:04:40;;;;;;;7.20;4.97;;;8.00;99.90;;;;;;4893544;29;20111;-69
2022/06/23 12:07:32;;;;;;;7.15;5.50;;;8.00;99.90;;;;;;4930448;28;20039;-68
2022/06/23 12:10:18;;;;;;;10.95;5.32;;;8.00;99.90;;;;;;4939058;28;20522;-69
2022/06/23 12:12:48;;;;;;;7.63;5.10;;;8.10;99.90;;;;;;4935061;28;20039;-65
2022/06/23 12:15:32;;;;;;;6.60;4.30;;;8.20;99.90;;;;;;4946269;28;20050;-69
2022/06/23 12:18:05;;;;;;;6.35;4.70;;;8.20;99.90;;;;;;4941081;28;20037;-68
2022/06/23 12:20:50;;;;;;;9.90;4.57;;;8.20;99.90;;;;;;4941295;28;20023;-65
2022/06/23 12:23:23;;;;;;;9.45;4.78;;;8.20;99.90;;;;;;4944266;28;20035;-68
2022/06/23 12:26:09;;;;;;;6.63;4.18;;;8.30;99.90;;;;;;4939883;28;20040;-65
2022/06/23 12:29:05;;;;;;;6.63;4.30;;;8.20;99.90;;;;;;4939101;28;20485;-65
2022/06/23 12:31:49;;;;;;;5.25;3.67;;;8.10;99.90;;;;;;4938568;28;20089;-69
2022/06/23 12:34:43;;;;;;;5.97;4.43;;;8.10;99.90;;;;;;4937429;28;20031;-69
2022/06/23 12:37:19;;;;;;;7.82;3.85;;;8.00;99.90;;;;;;4939003;28;20347;-66
2022/06/23 12:39:58;;;;;;;5.90;3.95;;;7.90;99.90;;;;;;4937447;28;20040;-69
2022/06/23 12:42:36;;;;;;;6.43;4.38;;;7.80;99.90;;;;;;4936091;28;20032;-70
2022/06/23 12:45:22;;;;;;;5.60;4.38;;;7.80;99.90;;;;;;4933281;28;20031;-70
2022/06/23 12:47:54;;;;;;;6.03;4.50;;;7.80;99.90;;;;;;4928333;28;20086;-70
2022/06/23 12:51:05;;;;;;;6.18;4.15;;;7.70;99.90;;;;;;4936803;28;20102;-66
2022/06/23 12:54:00;;;;;;;8.55;3.92;;;7.70;99.90;;;;;;4886339;29;20033;-65
2022/06/23 12:56:35;;;;;;;6.70;4.93;;;7.70;99.90;;;;;;4888176;29;20036;-69
2022/06/23 12:59:26;;;;;;;6.80;4.60;;;7.80;99.90;;;;;;4886789;29;20032;-64
2022/06/23 13:02:24;;;;;;;6.28;4.75;;;7.80;99.90;;;;;;4888380;29;20552;-69
2022/06/23 13:04:51;;;;;;;7.90;4.82;;;7.80;99.90;;;;;;4878986;29;20048;-66
2022/06/23 13:07:34;;;;;;;6.57;4.50;;;7.80;99.90;;;;;;4878111;29;20065;-65
2022/06/23 13:10:13;;;;;;;9.27;4.72;;;7.80;99.90;;;;;;4882947;29;20447;-65
2022/06/23 13:12:57;;;;;;;6.72;4.50;;;7.80;99.90;;;;;;4882029;29;20409;-65
2022/06/23 13:15:47;;;;;;;7.05;4.78;;;7.70;99.90;;;;;;4888595;29;20099;-65
2022/06/23 13:18:24;;;;;;;5.07;4.25;;;7.80;99.90;;;;;;4888307;29;20572;-70
2022/06/23 13:20:54;;;;;;;5.55;4.05;;;7.80;99.90;;;;;;4888541;29;20088;-65
2022/06/23 13:23:45;;;;;;;6.10;4.50;;;7.60;99.90;;;;;;4888358;29;20540;-65
2022/06/23 13:26:16;;;;;;;5.60;4.20;;;7.50;99.90;;;;;;4888129;29;20069;-65
2022/06/23 13:28:45;;;;;;;8.77;4.32;;;7.50;99.90;;;;;;4881086;29;20040;-64
2022/06/23 13:31:45;;;;;;;7.45;4.60;;;7.50;99.90;;;;;;4932064;28;20047;-68
2022/06/23 13:34:27;;;;;;;9.35;4.63;;;7.40;99.90;;;;;;4889461;29;20036;-68
2022/06/23 13:36:56;;;;;;;7.22;4.68;;;7.30;99.90;;;;;;4893907;29;20429;-68
2022/06/23 13:39:52;;;;;;;5.75;4.28;;;7.20;99.90;;;;;;4893769;29;20331;-68
2022/06/23 13:43:04;;;;;;;5.80;4.68;;;7.20;99.90;;;;;;4896372;29;20417;-69
2022/06/23 13:45:43;;;;;;;6.55;4.80;;;7.30;99.90;;;;;;4888470;29;20040;-65
2022/06/23 13:48:31;;;;;;;7.00;4.50;;;7.20;99.90;;;;;;4887736;29;20548;-70
2022/06/23 13:51:07;;;;;;;7.88;5.07;;;7.30;99.90;;;;;;4894166;29;20517;-69
2022/06/23 13:53:39;;;;;;;8.27;5.10;;;7.20;99.90;;;;;;4897164;29;20033;-64
2022/06/23 13:56:11;;;;;;;6.70;4.22;;;7.30;99.90;;;;;;4899139;29;20565;-67
2022/06/23 13:58:49;;;;;;;6.93;4.43;;;7.20;99.90;;;;;;4892447;29;20661;-63
2022/06/23 14:01:30;;;;;;;6.20;4.68;;;7.20;99.90;;;;;;4896171;29;20036;-63
2022/06/23 14:04:37;;;;;;;7.32;4.45;;;7.30;99.90;;;;;;4891705;29;20505;-64
2022/06/23 14:07:20;;;;;;;5.18;3.97;;;7.20;99.90;;;;;;4900837;29;20130;-68
2022/06/23 14:10:03;;;;;;;8.05;4.55;;;7.10;99.90;;;;;;4895832;29;20039;-66
2022/06/23 14:12:56;;;;;;;5.30;4.00;;;7.20;99.90;;;;;;4933212;28;20519;-63